createdAt,value
2022-10-13T00:00:05.513Z,8.61
2022-10-13T00:02:31.852Z,8.58
2022-10-13T00:04:58.175Z,8.57
2022-10-13T00:07:24.551Z,8.60
2022-10-13T00:09:50.874Z,8.64
2022-10-13T00:12:18.209Z,8.62
2022-10-13T00:14:44.694Z,8.56
2022-10-13T00:17:11.036Z,8.58
2022-10-13T00:19:37.419Z,8.78
2022-10-13T00:22:03.791Z,8.78
2022-10-13T00:24:30.360Z,8.87
2022-10-13T00:26:56.709Z,8.99
2022-10-13T00:29:23.217Z,9.11
2022-10-13T00:31:49.580Z,9.19
2022-10-13T00:34:15.943Z,9.26
2022-10-13T00:36:42.253Z,9.36
2022-10-13T00:39:08.663Z,9.36
2022-10-13T00:41:35.079Z,9.38
2022-10-13T00:44:25.923Z,9.43
2022-10-13T00:46:52.274Z,9.35
2022-10-13T00:49:19.051Z,9.46
2022-10-13T00:51:48.872Z,9.41
2022-10-13T00:54:20.406Z,9.40
2022-10-13T00:56:47.800Z,9.45
2022-10-13T00:59:22.922Z,9.38
2022-10-13T01:01:50.131Z,9.43
2022-10-13T01:04:19.519Z,9.42
2022-10-13T01:06:47.176Z,9.37
2022-10-13T01:09:13.566Z,9.43
2022-10-13T01:11:52.588Z,9.42
2022-10-13T01:14:40.266Z,9.42
2022-10-13T01:17:27.890Z,9.46
2022-10-13T01:20:16.205Z,9.45
2022-10-13T01:23:06.513Z,9.43
2022-10-13T01:25:41.796Z,9.44
2022-10-13T01:28:20.947Z,9.47
2022-10-13T01:31:03.312Z,9.53
2022-10-13T01:33:40.881Z,9.48
2022-10-13T01:36:26.002Z,9.48
2022-10-13T01:39:02.970Z,9.49
2022-10-13T01:41:42.591Z,9.42
2022-10-13T01:44:19.364Z,9.44
2022-10-13T01:46:48.537Z,9.35
2022-10-13T01:49:17.547Z,9.32
2022-10-13T01:51:44.966Z,9.35
2022-10-13T01:54:11.442Z,9.33
2022-10-13T01:56:38.063Z,9.24
2022-10-13T01:59:12.943Z,9.29
2022-10-13T02:01:58.116Z,9.36
2022-10-13T02:04:53.897Z,9.25
2022-10-13T02:07:37.574Z,9.26
2022-10-13T02:10:17.621Z,9.11
2022-10-13T02:12:53.740Z,9.00
2022-10-13T02:15:25.523Z,8.96
2022-10-13T02:17:52.535Z,8.94
2022-10-13T02:20:20.682Z,8.92
2022-10-13T02:22:52.779Z,8.92
2022-10-13T02:25:19.148Z,8.96
2022-10-13T02:27:45.652Z,9.01
2022-10-13T02:30:21.274Z,8.99
2022-10-13T02:32:47.657Z,9.00
2022-10-13T02:35:14.031Z,9.07
2022-10-13T02:37:40.425Z,9.13
2022-10-13T02:40:07.317Z,9.23
2022-10-13T02:42:33.772Z,9.19
2022-10-13T02:45:00.092Z,9.26
2022-10-13T02:47:26.494Z,9.24
2022-10-13T02:49:52.834Z,9.27
2022-10-13T02:52:19.510Z,9.31
2022-10-13T02:54:46.090Z,9.30
2022-10-13T02:57:12.433Z,9.33
2022-10-13T02:59:38.846Z,9.41
2022-10-13T03:02:05.198Z,9.39
2022-10-13T03:04:31.700Z,9.39
2022-10-13T03:06:58.059Z,9.33
2022-10-13T03:09:24.412Z,9.46
2022-10-13T03:11:50.898Z,9.44
2022-10-13T03:14:17.334Z,9.49
2022-10-13T03:16:43.651Z,9.43
2022-10-13T03:19:10.768Z,9.47
2022-10-13T03:21:38.545Z,9.47
2022-10-13T03:24:05.549Z,9.56
2022-10-13T03:26:33.450Z,9.55
2022-10-13T03:28:59.804Z,9.51
2022-10-13T03:31:26.422Z,9.52
2022-10-13T03:33:54.346Z,9.61
2022-10-13T03:36:20.780Z,9.57
2022-10-13T03:38:47.214Z,9.55
2022-10-13T03:41:16.241Z,9.47
2022-10-13T03:43:44.533Z,9.38
2022-10-13T03:46:13.534Z,9.45
2022-10-13T03:48:39.966Z,9.40
2022-10-13T03:51:08.089Z,9.37
2022-10-13T03:53:34.683Z,9.50
2022-10-13T03:56:01.977Z,9.43
2022-10-13T03:58:29.035Z,9.47
2022-10-13T04:00:56.463Z,9.58
2022-10-13T04:03:24.205Z,9.47
2022-10-13T04:05:50.526Z,9.41
2022-10-13T04:08:17.066Z,9.36
2022-10-13T04:10:43.420Z,9.39
2022-10-13T04:13:09.789Z,9.38
2022-10-13T04:15:37.857Z,9.34
2022-10-13T04:18:05.358Z,9.35
2022-10-13T04:20:31.775Z,9.42
2022-10-13T04:22:58.133Z,9.38
2022-10-13T04:25:24.487Z,9.43
2022-10-13T04:27:50.923Z,9.43
2022-10-13T04:30:17.294Z,9.49
2022-10-13T04:32:43.609Z,9.58
2022-10-13T04:35:10.190Z,9.47
2022-10-13T04:37:36.625Z,9.38
2022-10-13T04:40:03.337Z,9.39
2022-10-13T04:42:29.724Z,9.48
2022-10-13T04:44:56.065Z,9.41
2022-10-13T04:47:22.418Z,9.38
2022-10-13T04:49:48.852Z,9.32
2022-10-13T04:52:15.350Z,9.32
2022-10-13T04:54:42.295Z,9.24
2022-10-13T04:57:08.708Z,9.16
2022-10-13T04:59:35.047Z,9.20
2022-10-13T05:02:03.163Z,9.11
2022-10-13T05:04:29.530Z,9.18
2022-10-13T05:07:19.049Z,9.14
2022-10-13T05:09:42.270Z,9.11
2022-10-13T05:12:08.653Z,9.16
2022-10-13T05:14:35.274Z,9.06
2022-10-13T05:17:02.162Z,8.98
2022-10-13T05:19:28.569Z,8.94
2022-10-13T05:21:54.891Z,8.88
2022-10-13T05:24:30.799Z,8.83
2022-10-13T05:26:57.938Z,8.87
2022-10-13T05:29:24.287Z,8.91
2022-10-13T05:31:50.668Z,8.93
2022-10-13T05:34:16.982Z,8.97
2022-10-13T05:36:43.373Z,9.03
2022-10-13T05:39:10.252Z,9.06
2022-10-13T05:41:36.915Z,9.07
2022-10-13T05:44:06.973Z,9.04
2022-10-13T05:46:33.748Z,9.05
2022-10-13T05:49:00.394Z,9.10
2022-10-13T05:51:32.101Z,9.08
2022-10-13T05:54:03.986Z,9.00
2022-10-13T05:56:37.560Z,9.07
2022-10-13T05:59:07.979Z,9.06
2022-10-13T06:01:38.063Z,8.94
2022-10-13T06:04:08.604Z,8.88
2022-10-13T06:06:35.513Z,8.79
2022-10-13T06:09:02.044Z,8.68
2022-10-13T06:11:28.448Z,8.69
2022-10-13T06:13:54.836Z,8.72
2022-10-13T06:16:21.183Z,8.86
2022-10-13T06:18:47.540Z,8.97
2022-10-13T06:21:14.090Z,9.03
2022-10-13T06:23:40.441Z,9.03
2022-10-13T06:26:07.899Z,8.99
2022-10-13T06:28:34.550Z,9.02
2022-10-13T06:31:04.499Z,9.01
2022-10-13T06:33:30.942Z,9.08
2022-10-13T06:36:01.323Z,9.22
2022-10-13T06:38:27.645Z,9.28
2022-10-13T06:40:53.957Z,9.37
2022-10-13T06:43:20.357Z,9.39
2022-10-13T06:45:46.771Z,9.50
2022-10-13T06:48:13.086Z,9.45
2022-10-13T06:50:42.766Z,9.47
2022-10-13T06:53:09.477Z,9.52
2022-10-13T06:55:35.927Z,9.51
2022-10-13T06:58:02.280Z,9.51
2022-10-13T07:00:28.694Z,9.52
2022-10-13T07:02:55.099Z,9.57
2022-10-13T07:05:21.443Z,9.67
2022-10-13T07:07:47.987Z,9.75
2022-10-13T07:10:15.574Z,9.83
2022-10-13T07:12:41.949Z,9.88
2022-10-13T07:15:08.582Z,9.89
2022-10-13T07:17:35.204Z,9.95
2022-10-13T07:20:05.026Z,10.07
2022-10-13T07:22:33.704Z,10.12
2022-10-13T07:25:00.132Z,10.18
2022-10-13T07:27:27.693Z,10.27
2022-10-13T07:29:54.101Z,10.27
2022-10-13T07:32:20.439Z,10.28
2022-10-13T07:34:47.062Z,10.39
2022-10-13T07:37:13.450Z,10.47
2022-10-13T07:39:39.876Z,10.50
2022-10-13T07:42:06.227Z,10.57
2022-10-13T07:44:32.673Z,10.60
2022-10-13T07:46:59.115Z,10.61
2022-10-13T07:49:25.481Z,10.68
2022-10-13T07:51:51.883Z,10.63
2022-10-13T07:54:21.571Z,10.62
2022-10-13T07:56:54.239Z,10.73
2022-10-13T07:59:21.043Z,10.63
2022-10-13T08:01:47.845Z,10.72
2022-10-13T08:04:14.338Z,10.75
2022-10-13T08:06:41.917Z,10.81
2022-10-13T08:09:08.960Z,10.86
2022-10-13T08:11:35.341Z,10.89
2022-10-13T08:14:01.940Z,10.87
2022-10-13T08:16:28.928Z,10.96
2022-10-13T08:18:56.922Z,10.98
2022-10-13T08:24:13.990Z,11.02
2022-10-13T08:26:41.899Z,11.07
2022-10-13T08:29:24.415Z,11.09
2022-10-13T08:31:53.489Z,11.15
2022-10-13T08:34:20.666Z,11.29
2022-10-13T08:36:47.353Z,11.39
2022-10-13T08:39:13.956Z,11.47
2022-10-13T08:41:46.317Z,11.59
2022-10-13T08:45:21.877Z,11.76
2022-10-13T08:47:35.762Z,11.89
2022-10-13T08:50:13.307Z,11.99
2022-10-13T08:53:05.762Z,12.07
2022-10-13T08:55:42.840Z,12.15
2022-10-13T08:58:33.663Z,12.26
2022-10-13T09:01:17.544Z,12.38
2022-10-13T09:03:55.993Z,12.57
2022-10-13T09:06:33.625Z,12.60
2022-10-13T09:09:18.289Z,12.65
2022-10-13T09:11:47.484Z,12.69
2022-10-13T09:14:24.378Z,12.74
2022-10-13T09:16:52.575Z,12.90
2022-10-13T09:19:28.217Z,12.90
2022-10-13T09:21:57.150Z,12.93
2022-10-13T09:24:26.303Z,13.08
2022-10-13T09:27:11.534Z,13.20
2022-10-13T09:29:38.009Z,13.25
2022-10-13T09:32:15.553Z,13.38
2022-10-13T09:34:42.320Z,13.50
2022-10-13T09:37:21.271Z,13.56
2022-10-13T09:40:01.641Z,13.64
2022-10-13T09:42:31.602Z,13.77
2022-10-13T09:45:21.216Z,13.79
2022-10-13T09:47:53.563Z,13.87
2022-10-13T09:50:24.185Z,13.91
2022-10-13T09:52:51.039Z,13.99
2022-10-13T09:55:32.210Z,13.94
2022-10-13T09:58:24.667Z,14.03
2022-10-13T10:00:52.970Z,13.99
2022-10-13T10:03:23.579Z,14.09
2022-10-13T10:05:51.955Z,14.10
2022-10-13T10:09:02.055Z,14.07
2022-10-13T10:11:47.647Z,14.19
2022-10-13T10:14:25.388Z,14.17
2022-10-13T10:17:25.674Z,14.13
2022-10-13T10:20:06.165Z,14.14
2022-10-13T10:22:35.542Z,14.22
2022-10-13T10:25:18.337Z,14.15
2022-10-13T10:27:52.577Z,14.13
2022-10-13T10:30:20.782Z,14.11
2022-10-13T10:32:53.229Z,14.06
2022-10-13T10:35:38.609Z,14.16
2022-10-13T10:38:14.086Z,14.14
2022-10-13T10:40:48.706Z,14.23
2022-10-13T10:43:46.741Z,14.34
2022-10-13T10:46:21.222Z,14.41
2022-10-13T10:48:50.205Z,14.62
2022-10-13T10:51:18.299Z,14.78
2022-10-13T10:54:03.106Z,14.92
2022-10-13T10:56:38.489Z,14.96
2022-10-13T10:59:20.129Z,15.02
2022-10-13T11:02:01.474Z,15.13
2022-10-13T11:04:33.265Z,15.28
2022-10-13T11:06:59.685Z,15.42
2022-10-13T11:09:41.481Z,15.47
2022-10-13T11:12:20.543Z,15.58
2022-10-13T11:15:11.334Z,15.62
2022-10-13T11:17:40.843Z,15.56
2022-10-13T11:20:19.791Z,15.58
2022-10-13T11:23:06.053Z,15.55
2022-10-13T11:25:48.760Z,15.59
2022-10-13T11:28:41.696Z,15.56
2022-10-13T11:31:14.021Z,15.54
2022-10-13T11:33:40.373Z,15.63
2022-10-13T11:36:44.363Z,15.76
2022-10-13T11:39:28.560Z,15.83
2022-10-13T11:42:05.583Z,15.90
2022-10-13T11:44:53.755Z,15.89
2022-10-13T11:50:52.504Z,15.71
2022-10-13T11:53:24.225Z,15.57
2022-10-13T11:55:55.878Z,15.52
2022-10-13T11:58:23.543Z,15.47
2022-10-13T12:00:53.334Z,15.53
2022-10-13T12:03:28.935Z,15.55
2022-10-13T12:06:00.625Z,15.59
2022-10-13T12:08:30.471Z,15.56
2022-10-13T12:10:58.217Z,15.70
2022-10-13T12:13:28.201Z,15.83
2022-10-13T12:16:08.308Z,15.94
2022-10-13T12:18:40.115Z,16.01
2022-10-13T12:21:16.082Z,16.05
2022-10-13T12:23:42.593Z,16.11
2022-10-13T12:26:16.703Z,16.15
2022-10-13T12:28:50.068Z,16.23
2022-10-13T12:31:25.839Z,16.20
2022-10-13T12:34:00.878Z,16.18
2022-10-13T12:36:31.039Z,16.10
2022-10-13T12:39:04.867Z,16.07
2022-10-13T12:41:35.013Z,16.02
2022-10-13T12:44:05.798Z,16.00
2022-10-13T12:46:43.381Z,15.91
2022-10-13T12:49:22.488Z,15.84
2022-10-13T12:51:51.607Z,15.82
2022-10-13T12:54:22.317Z,15.79
2022-10-13T12:56:55.222Z,15.80
2022-10-13T12:59:24.671Z,15.73
2022-10-13T13:01:58.304Z,15.62
2022-10-13T13:04:24.618Z,15.75
2022-10-13T13:07:02.672Z,15.72
2022-10-13T13:09:34.259Z,15.77
2022-10-13T13:12:21.373Z,15.74
2022-10-13T13:14:52.294Z,15.79
2022-10-13T13:17:38.565Z,16.01
2022-10-13T13:20:20.979Z,16.01
2022-10-13T13:22:47.527Z,16.05
2022-10-13T13:25:15.286Z,16.15
2022-10-13T13:27:41.874Z,16.08
2022-10-13T13:30:17.648Z,16.06
2022-10-13T13:32:44.011Z,16.08
2022-10-13T13:35:10.839Z,16.08
2022-10-13T13:37:41.481Z,16.06
2022-10-13T13:40:15.924Z,16.08
2022-10-13T13:42:42.378Z,15.98
2022-10-13T13:45:16.195Z,15.87
2022-10-13T13:47:42.895Z,15.85
2022-10-13T13:50:25.775Z,15.82
2022-10-13T13:52:52.234Z,15.75
2022-10-13T13:55:18.931Z,15.57
2022-10-13T13:57:45.421Z,15.51
2022-10-13T14:00:13.911Z,15.46
2022-10-13T14:02:41.214Z,15.44
2022-10-13T14:05:07.842Z,15.31
2022-10-13T14:07:34.557Z,15.25
2022-10-13T14:10:02.337Z,15.18
2022-10-13T14:12:30.777Z,15.09
2022-10-13T14:14:58.410Z,15.10
2022-10-13T14:17:25.686Z,15.06
2022-10-13T14:19:52.039Z,15.09
2022-10-13T14:22:18.439Z,15.07
2022-10-13T14:24:44.797Z,15.09
2022-10-13T14:27:11.251Z,15.06
2022-10-13T14:29:37.626Z,15.05
2022-10-13T14:32:04.471Z,14.97
2022-10-13T14:34:30.881Z,14.91
2022-10-13T14:36:57.338Z,14.85
2022-10-13T14:39:23.763Z,14.76
2022-10-13T14:41:50.153Z,14.80
2022-10-13T14:44:16.658Z,14.65
2022-10-13T14:46:43.014Z,14.54
2022-10-13T14:49:12.593Z,14.48
2022-10-13T14:51:38.995Z,14.45
2022-10-13T14:54:06.800Z,14.41
2022-10-13T14:56:34.033Z,14.38
2022-10-13T14:59:02.835Z,14.31
2022-10-13T15:01:29.496Z,14.30
2022-10-13T15:03:56.120Z,14.22
2022-10-13T15:06:25.354Z,14.17
2022-10-13T15:08:52.177Z,14.15
2022-10-13T15:11:21.214Z,14.06
2022-10-13T15:13:48.235Z,14.06
2022-10-13T15:16:17.670Z,14.02
2022-10-13T15:18:44.430Z,13.95
2022-10-13T15:21:11.373Z,13.95
2022-10-13T15:23:38.764Z,13.88
2022-10-13T15:26:06.019Z,13.83
2022-10-13T15:28:41.588Z,13.83
2022-10-13T15:31:08.159Z,13.82
2022-10-13T15:33:34.893Z,13.91
2022-10-13T15:36:01.498Z,13.94
2022-10-13T15:38:27.944Z,13.91
2022-10-13T15:41:01.575Z,13.88
2022-10-13T15:43:28.467Z,13.86
2022-10-13T15:45:59.330Z,13.83
2022-10-13T15:48:26.024Z,13.84
2022-10-13T15:50:52.480Z,13.78
2022-10-13T15:53:20.046Z,13.73
2022-10-13T15:55:50.043Z,13.65
2022-10-13T15:58:17.322Z,13.62
2022-10-13T16:00:44.020Z,13.60
2022-10-13T16:03:16.611Z,13.55
2022-10-13T16:05:44.487Z,13.62
2022-10-13T16:08:10.928Z,13.47
2022-10-13T16:10:41.918Z,13.49
2022-10-13T16:13:12.275Z,13.41
2022-10-13T16:15:38.810Z,13.47
2022-10-13T16:18:05.240Z,13.37
2022-10-13T16:20:34.865Z,13.31
2022-10-13T16:23:01.964Z,13.27
2022-10-13T16:25:29.300Z,13.25
2022-10-13T16:27:56.090Z,13.26
2022-10-13T16:30:22.568Z,13.21
2022-10-13T16:32:48.940Z,13.17
2022-10-13T16:35:15.368Z,13.17
2022-10-13T16:37:41.894Z,13.13
2022-10-13T16:40:08.844Z,13.11
2022-10-13T16:42:35.199Z,13.13
2022-10-13T16:45:01.605Z,13.05
2022-10-13T16:47:27.934Z,13.09
2022-10-13T16:49:54.471Z,13.07
2022-10-13T16:52:20.901Z,13.04
2022-10-13T16:54:47.287Z,12.96
2022-10-13T16:57:13.703Z,12.98
2022-10-13T16:59:40.973Z,12.96
2022-10-13T17:02:13.989Z,12.97
2022-10-13T17:04:40.365Z,13.00
2022-10-13T17:07:06.720Z,12.94
2022-10-13T17:09:33.047Z,12.98
2022-10-13T17:11:59.900Z,12.90
2022-10-13T17:14:26.303Z,12.89
2022-10-13T17:16:57.404Z,12.90
2022-10-13T17:19:24.239Z,12.86
2022-10-13T17:21:50.584Z,12.86
2022-10-13T17:24:17.362Z,12.90
2022-10-13T17:26:43.748Z,12.88
2022-10-13T17:29:10.266Z,12.81
2022-10-13T17:31:36.695Z,12.80
2022-10-13T17:34:03.119Z,12.93
2022-10-13T17:36:34.072Z,12.83
2022-10-13T17:39:06.383Z,12.89
2022-10-13T17:41:32.875Z,12.81
2022-10-13T17:43:59.314Z,12.74
2022-10-13T17:46:37.536Z,12.76
2022-10-13T17:49:05.202Z,12.76
2022-10-13T17:51:31.621Z,12.87
2022-10-13T17:53:59.469Z,12.81
2022-10-13T17:56:26.121Z,12.83
2022-10-13T17:58:53.172Z,12.74
2022-10-13T18:01:31.767Z,12.81
2022-10-13T18:04:01.025Z,12.78
2022-10-13T18:06:32.635Z,12.83
2022-10-13T18:09:08.807Z,12.83
2022-10-13T18:11:36.043Z,12.81
2022-10-13T18:14:02.555Z,12.81
2022-10-13T18:16:29.122Z,12.75
2022-10-13T18:18:55.540Z,12.75
2022-10-13T18:21:24.511Z,12.77
2022-10-13T18:23:50.970Z,12.73
2022-10-13T18:26:19.733Z,12.74
2022-10-13T18:28:48.244Z,12.71
2022-10-13T18:31:27.507Z,12.68
2022-10-13T18:33:55.542Z,12.67
2022-10-13T18:36:30.826Z,12.67
2022-10-13T18:39:02.900Z,12.62
2022-10-13T18:41:29.476Z,12.64
2022-10-13T18:43:56.291Z,12.67
2022-10-13T18:46:23.356Z,12.67
2022-10-13T18:48:50.140Z,12.63
2022-10-13T18:51:18.537Z,12.57
2022-10-13T18:53:47.330Z,12.58
2022-10-13T18:56:24.300Z,12.56
2022-10-13T18:58:57.001Z,12.53
2022-10-13T19:01:27.299Z,12.52
2022-10-13T19:03:54.486Z,12.55
2022-10-13T19:06:30.365Z,12.57
2022-10-13T19:09:00.666Z,12.49
2022-10-13T19:11:28.211Z,12.51
2022-10-13T19:13:54.950Z,12.55
2022-10-13T19:16:23.953Z,12.53
2022-10-13T19:18:50.834Z,12.63
2022-10-13T19:21:19.272Z,12.63
2022-10-13T19:23:45.836Z,12.60
2022-10-13T19:26:18.549Z,12.62
2022-10-13T19:28:45.851Z,12.57
2022-10-13T19:31:16.293Z,12.58
2022-10-13T19:33:45.179Z,12.57
2022-10-13T19:36:20.344Z,12.52
2022-10-13T19:38:46.691Z,12.56
2022-10-13T19:41:13.140Z,12.51
2022-10-13T19:43:39.621Z,12.54
2022-10-13T19:46:07.871Z,12.50
2022-10-13T19:48:34.988Z,12.52
2022-10-13T19:51:03.968Z,12.49
2022-10-13T19:53:30.501Z,12.45
2022-10-13T19:55:56.858Z,12.44
2022-10-13T19:58:24.327Z,12.48
2022-10-13T20:00:51.012Z,12.55
2022-10-13T20:03:17.791Z,12.53
2022-10-13T20:05:44.301Z,12.53
2022-10-13T20:08:12.549Z,12.51
2022-10-13T20:10:43.117Z,12.45
2022-10-13T20:13:10.876Z,12.50
2022-10-13T20:15:42.359Z,12.42
2022-10-13T20:18:10.549Z,12.42
2022-10-13T20:20:37.135Z,12.44
2022-10-13T20:23:04.808Z,12.34
2022-10-13T20:25:31.252Z,12.31
2022-10-13T20:27:59.031Z,12.30
2022-10-13T20:30:25.509Z,12.25
2022-10-13T20:32:52.113Z,12.30
2022-10-13T20:35:18.542Z,12.28
2022-10-13T20:37:45.129Z,12.36
2022-10-13T20:40:11.689Z,12.36
2022-10-13T20:42:38.242Z,12.31
2022-10-13T20:45:05.139Z,12.31
2022-10-13T20:47:31.676Z,12.29
2022-10-13T20:49:58.093Z,12.42
2022-10-13T20:52:24.703Z,12.35
2022-10-13T20:54:51.061Z,12.32
2022-10-13T20:57:17.962Z,12.26
2022-10-13T20:59:44.560Z,12.29
2022-10-13T21:02:13.009Z,12.26
2022-10-13T21:04:40.725Z,12.26
2022-10-13T21:07:07.302Z,12.31
2022-10-13T21:09:36.935Z,12.30
2022-10-13T21:12:03.692Z,12.30
2022-10-13T21:14:30.230Z,12.29
2022-10-13T21:16:56.626Z,12.26
2022-10-13T21:19:23.340Z,12.24
2022-10-13T21:21:49.810Z,12.33
2022-10-13T21:24:16.354Z,12.33
2022-10-13T21:26:42.753Z,12.33
2022-10-13T21:29:09.507Z,12.25
2022-10-13T21:31:35.939Z,12.33
2022-10-13T21:34:03.078Z,12.30
2022-10-13T21:36:32.352Z,12.22
2022-10-13T21:39:05.033Z,12.28
2022-10-13T21:41:31.687Z,12.40
2022-10-13T21:43:58.343Z,12.36
2022-10-13T21:46:27.472Z,12.30
2022-10-13T21:48:58.923Z,12.31
2022-10-13T21:51:29.314Z,12.36
2022-10-13T21:53:58.375Z,12.31
2022-10-13T21:56:26.333Z,12.26
2022-10-13T21:58:54.507Z,12.35
2022-10-13T22:01:21.618Z,12.31
2022-10-13T22:03:52.046Z,12.27
2022-10-13T22:06:19.700Z,12.23
2022-10-13T22:08:49.354Z,12.22
2022-10-13T22:11:17.273Z,12.21
2022-10-13T22:13:43.803Z,12.18
2022-10-13T22:16:32.367Z,12.16
2022-10-13T22:18:59.089Z,12.13
2022-10-13T22:21:28.373Z,12.22
2022-10-13T22:24:01.164Z,12.23
2022-10-13T22:26:30.190Z,12.24
2022-10-13T22:28:58.021Z,12.24
2022-10-13T22:31:25.464Z,12.21
2022-10-13T22:33:53.636Z,12.26
2022-10-13T22:36:22.706Z,12.35
2022-10-13T22:38:50.844Z,12.25
2022-10-13T22:41:18.805Z,12.29
2022-10-13T22:43:48.671Z,12.29
2022-10-13T22:46:16.984Z,12.36
2022-10-13T22:48:44.240Z,12.35
2022-10-13T22:51:12.141Z,12.35
2022-10-13T22:53:39.961Z,12.36
2022-10-13T22:56:08.178Z,12.27
2022-10-13T22:58:35.555Z,12.26
2022-10-13T23:01:10.432Z,12.12
2022-10-13T23:03:37.483Z,12.19
2022-10-13T23:06:05.315Z,12.13
2022-10-13T23:08:31.791Z,12.10
2022-10-13T23:10:58.647Z,12.03
2022-10-13T23:13:25.511Z,12.00
2022-10-13T23:15:52.095Z,11.98
2022-10-13T23:18:18.513Z,11.98
2022-10-13T23:20:45.370Z,11.98
2022-10-13T23:23:11.921Z,11.93
2022-10-13T23:25:38.485Z,11.95
2022-10-13T23:28:05.209Z,11.94
2022-10-13T23:30:31.810Z,11.94
2022-10-13T23:32:58.257Z,11.91
2022-10-13T23:35:24.884Z,11.94
2022-10-13T23:37:54.372Z,11.92
2022-10-13T23:40:20.899Z,11.94
2022-10-13T23:42:47.631Z,11.88
2022-10-13T23:45:14.194Z,11.91
2022-10-13T23:47:40.607Z,11.91
2022-10-13T23:50:07.505Z,11.91
2022-10-13T23:52:33.970Z,11.90
2022-10-13T23:55:00.504Z,11.87
2022-10-13T23:57:29.734Z,11.91
2022-10-13T23:59:56.156Z,11.89
